Miami, Florida
Traffic Map
Current Weather Conditions
Miami, Florida
Scattered Clouds
Scattered Clouds
79°
Feels Like: 82°
Wind Chill: 79° Ceiling: Unl
Heat Index: 82° Visibility: 10mi
Dew Point: 74° Wind: 8mph
Humidity: 84% Direction: 150° (SSE)
Pressure: 29.97in Gusts: 0mph
Raw Report DataKMIA 240253Z 15007KT 10SM SCT150 26/23 A2997 RMK AO2 SLP148 T02610233 50009
Traffic Incident Summary
Active as of:
Severity:
Category:
InformationThere was an issue retrieving the traffic information for this location. Please try a different location or try again shortly.
Advertisements
Track Severe Weather on mobile